Time;durP1;ratioP1;P1;durP2;ratioP2;P2;SDS_P1;SDS_P2;PMS_P1;PMS_P2;Temp;Humidity;BMP_temperature;BMP_pressure;BME280_temperature;BME280_humidity;BME280_pressure;Samples;Min_cycle;Max_cycle;Signal;HPM_P1;HPM_P2
2022/01/12 00:00:55;;;;;;;117.32;38.95;;;3.50;99.90;;;;;;5034298;28;20037;-66
2022/01/12 00:03:20;;;;;;;116.05;40.30;;;3.50;99.90;;;;;;5050176;28;20513;-66
2022/01/12 00:05:46;;;;;;;128.63;41.28;;;3.50;99.90;;;;;;5050446;28;20044;-65
2022/01/12 00:08:12;;;;;;;132.45;39.83;;;3.50;99.90;;;;;;5049116;28;20037;-66
2022/01/12 00:10:38;;;;;;;129.82;41.10;;;3.50;99.90;;;;;;5066588;28;20040;-64
2022/01/12 00:13:04;;;;;;;131.93;40.00;;;3.50;99.90;;;;;;5051840;28;20525;-65
2022/01/12 00:15:30;;;;;;;128.13;39.95;;;3.50;99.90;;;;;;5050418;28;20037;-65
2022/01/12 00:17:56;;;;;;;112.38;40.38;;;3.50;99.90;;;;;;5046562;28;20037;-65
2022/01/12 00:20:22;;;;;;;130.63;41.13;;;3.50;99.90;;;;;;5050218;28;20039;-65
2022/01/12 00:22:47;;;;;;;141.18;41.38;;;3.50;99.90;;;;;;5049426;28;20037;-65
2022/01/12 00:33:12;;;;;;;157.65;44.25;;;3.50;99.90;;;;;;5046471;28;20190;-66
2022/01/12 00:35:40;;;;;;;135.80;39.97;;;3.50;99.90;;;;;;5050951;28;20052;-66
2022/01/12 00:38:06;;;;;;;153.43;42.40;;;3.50;99.90;;;;;;5050120;28;20041;-66
2022/01/12 00:40:32;;;;;;;148.02;42.75;;;3.50;99.90;;;;;;5051055;28;20801;-66
2022/01/12 00:42:58;;;;;;;131.20;41.67;;;3.60;99.90;;;;;;5032812;28;20330;-66
2022/01/12 00:45:24;;;;;;;135.60;41.67;;;3.50;99.90;;;;;;5050755;28;20037;-66
2022/01/12 00:47:50;;;;;;;134.63;40.83;;;3.50;99.90;;;;;;5051039;28;20418;-68
2022/01/12 00:50:17;;;;;;;148.18;42.17;;;3.60;99.90;;;;;;5050349;28;20048;-66
2022/01/12 00:52:43;;;;;;;148.70;41.92;;;3.60;99.90;;;;;;5048327;28;20047;-66
2022/01/12 00:55:10;;;;;;;161.88;41.78;;;3.60;99.90;;;;;;5051499;28;20041;-66
2022/01/12 00:57:36;;;;;;;194.88;45.72;;;3.60;99.90;;;;;;5050345;28;20048;-66
2022/01/12 01:00:03;;;;;;;173.00;43.67;;;3.60;99.90;;;;;;5050632;28;20033;-67
2022/01/12 01:02:29;;;;;;;152.60;42.08;;;3.60;99.90;;;;;;5048922;28;20048;-66
2022/01/12 01:04:55;;;;;;;168.30;44.75;;;4.00;99.90;;;;;;5049339;28;20041;-66
2022/01/12 01:07:21;;;;;;;191.35;45.75;;;3.60;99.90;;;;;;5051052;28;20111;-66
2022/01/12 01:09:57;;;;;;;164.25;42.45;;;3.60;99.90;;;;;;5045724;28;20069;-66
2022/01/12 01:12:23;;;;;;;169.93;43.28;;;3.60;99.90;;;;;;5050258;28;20068;-66
2022/01/12 01:15:02;;;;;;;190.52;43.97;;;3.70;99.90;;;;;;5047290;28;20079;-67
2022/01/12 01:25:51;;;;;;;202.73;44.85;;;3.70;99.90;;;;;;5051284;28;20482;-67
2022/01/12 01:28:18;;;;;;;192.65;43.75;;;3.70;99.90;;;;;;5046384;28;20045;-66
2022/01/12 01:30:45;;;;;;;201.40;41.20;;;3.70;99.90;;;;;;5049126;28;20045;-66
2022/01/12 01:33:15;;;;;;;196.25;37.55;;;3.80;99.90;;;;;;5044055;28;20483;-66
2022/01/12 01:35:50;;;;;;;247.40;42.55;;;3.80;99.90;;;;;;5040507;28;20113;-66
2022/01/12 01:38:16;;;;;;;210.88;41.45;;;3.80;99.90;;;;;;5050150;28;20044;-66
2022/01/12 01:40:42;;;;;;;230.98;41.10;;;4.50;99.90;;;;;;5046834;28;20082;-66
2022/01/12 01:43:22;;;;;;;231.93;42.45;;;3.80;99.90;;;;;;5058838;28;20040;-65
2022/01/12 01:54:03;;;;;;;194.85;39.80;;;3.90;99.90;;;;;;5050689;28;20049;-66
2022/01/12 01:56:30;;;;;;;155.70;38.05;;;3.90;99.90;;;;;;5049508;28;20037;-66
2022/01/12 01:58:56;;;;;;;184.73;39.50;;;3.90;99.90;;;;;;5048061;28;20052;-66
2022/01/12 02:01:23;;;;;;;157.82;37.47;;;3.90;99.90;;;;;;5049522;28;20037;-66
2022/01/12 02:03:49;;;;;;;159.25;37.67;;;3.90;99.90;;;;;;5050098;28;20040;-66
2022/01/12 02:06:16;;;;;;;144.00;35.53;;;3.90;99.90;;;;;;5050007;28;20364;-66
2022/01/12 02:08:42;;;;;;;147.55;37.55;;;4.00;99.90;;;;;;5047745;28;20050;-66
2022/01/12 02:11:08;;;;;;;136.45;35.03;;;4.00;99.90;;;;;;5040469;28;20502;-66
2022/01/12 02:13:33;;;;;;;143.73;35.70;;;4.00;99.90;;;;;;5050137;28;20037;-66
2022/01/12 02:15:59;;;;;;;140.77;34.33;;;4.00;99.90;;;;;;5036151;28;20040;-66
2022/01/12 02:40:38;;;;;;;125.05;30.48;;;4.10;99.90;;;;;;5045000;28;20087;-66
2022/01/12 02:53:42;;;;;;;104.65;29.10;;;4.30;99.90;;;;;;5052280;28;20499;-67
2022/01/12 02:56:10;;;;;;;101.50;27.50;;;4.10;99.90;;;;;;5052452;28;20040;-66
2022/01/12 02:58:36;;;;;;;105.07;28.48;;;4.10;99.90;;;;;;5052624;28;20069;-66
2022/01/12 03:01:25;;;;;;;92.88;26.85;;;4.10;99.90;;;;;;5053127;28;20053;-66
2022/01/12 03:03:51;;;;;;;111.35;27.25;;;4.10;99.90;;;;;;5052913;28;20040;-66
2022/01/12 03:06:21;;;;;;;109.22;26.55;;;4.00;99.90;;;;;;5049372;28;20115;-65
2022/01/12 03:08:47;;;;;;;88.35;25.52;;;3.90;99.90;;;;;;5048485;28;20075;-66
2022/01/12 03:11:16;;;;;;;94.03;26.45;;;3.80;99.90;;;;;;5051817;28;20045;-66
2022/01/12 03:13:42;;;;;;;86.57;26.23;;;3.80;99.90;;;;;;5051777;28;20041;-67
2022/01/12 03:16:17;;;;;;;84.30;25.00;;;3.70;99.90;;;;;;5051898;28;20036;-65
2022/01/12 03:18:45;;;;;;;88.93;24.92;;;3.70;99.90;;;;;;5043628;28;20145;-66
2022/01/12 03:21:11;;;;;;;97.57;25.05;;;3.60;99.90;;;;;;5052941;28;20044;-66
2022/01/12 03:23:37;;;;;;;103.18;25.80;;;3.50;99.90;;;;;;5051436;28;20121;-65
2022/01/12 03:26:04;;;;;;;104.78;28.23;;;3.50;99.90;;;;;;5048854;28;20546;-65
2022/01/12 03:28:30;;;;;;;104.15;28.67;;;3.40;99.90;;;;;;5050178;28;20059;-65
2022/01/12 03:31:07;;;;;;;107.15;29.83;;;3.40;99.90;;;;;;5052294;28;20045;-65
2022/01/12 03:38:45;;;;;;;119.45;30.00;;;3.30;99.90;;;;;;5061937;28;20048;-67
2022/01/12 03:41:11;;;;;;;125.47;28.95;;;3.20;99.90;;;;;;5050178;28;20041;-66
2022/01/12 03:43:37;;;;;;;128.15;30.17;;;3.20;99.90;;;;;;5049418;28;20139;-66
2022/01/12 03:46:03;;;;;;;120.30;30.52;;;3.10;99.90;;;;;;5050835;28;20561;-66
2022/01/12 03:48:29;;;;;;;127.65;32.20;;;3.10;99.90;;;;;;5052075;28;20036;-66
2022/01/12 03:50:56;;;;;;;156.85;33.28;;;3.10;99.90;;;;;;5051194;28;20044;-66
2022/01/12 03:53:22;;;;;;;121.93;30.25;;;3.10;99.90;;;;;;5046842;28;20115;-66
2022/01/12 03:55:48;;;;;;;123.85;30.35;;;3.10;99.90;;;;;;5050529;28;20036;-66
2022/01/12 03:58:14;;;;;;;195.25;33.58;;;3.00;99.90;;;;;;5052226;28;20045;-65
2022/01/12 04:00:40;;;;;;;211.38;33.95;;;3.00;99.90;;;;;;5051009;28;20033;-65
2022/01/12 04:03:07;;;;;;;126.20;29.20;;;2.90;99.90;;;;;;5049903;28;20040;-66
2022/01/12 04:08:20;;;;;;;201.60;32.75;;;2.90;99.90;;;;;;5051187;28;20041;-66
2022/01/12 04:10:55;;;;;;;174.00;29.50;;;2.80;99.90;;;;;;5049870;28;20045;-67
2022/01/12 04:13:26;;;;;;;141.52;29.52;;;2.80;99.90;;;;;;5047429;28;20537;-66
2022/01/12 04:15:54;;;;;;;111.60;28.08;;;2.70;99.90;;;;;;5050350;28;20052;-65
2022/01/12 04:18:20;;;;;;;;;;;2.60;99.90;;;;;;5050037;28;20041;-66
2022/01/12 04:20:47;;;;;;;158.23;29.02;;;2.60;99.90;;;;;;5051621;28;19932;-65
2022/01/12 04:23:18;;;;;;;134.80;28.25;;;2.50;99.90;;;;;;5051972;28;20053;-67
2022/01/12 04:25:44;;;;;;;136.02;27.15;;;2.50;99.90;;;;;;5052934;28;20037;-66
2022/01/12 04:28:09;;;;;;;145.10;28.83;;;2.50;99.90;;;;;;5047519;28;20376;-66
2022/01/12 04:30:35;;;;;;;120.80;27.83;;;2.50;99.90;;;;;;5051805;28;20055;-65
2022/01/12 04:33:01;;;;;;;194.40;31.05;;;2.40;99.90;;;;;;5051416;28;20166;-65
2022/01/12 04:35:32;;;;;;;161.50;29.52;;;2.40;99.90;;;;;;5051412;28;20045;-65
2022/01/12 04:37:58;;;;;;;234.38;31.73;;;2.40;99.90;;;;;;5050668;28;20082;-65
2022/01/12 04:40:23;;;;;;;399.45;41.65;;;2.40;99.90;;;;;;5049523;28;20049;-65
2022/01/12 04:42:49;;;;;;;203.50;30.70;;;2.30;99.90;;;;;;5048382;28;20124;-65
2022/01/12 04:45:32;;;;;;;300.08;35.13;;;2.30;99.90;;;;;;5049200;28;20410;-67
2022/01/12 04:48:07;;;;;;;297.48;33.97;;;2.70;99.90;;;;;;5049840;28;20437;-66
2022/01/12 04:50:35;;;;;;;375.42;39.70;;;2.30;99.90;;;;;;5048078;28;20045;-65
2022/01/12 04:53:01;;;;;;;355.25;36.28;;;2.30;99.90;;;;;;5050609;28;20044;-65
2022/01/12 04:55:27;;;;;;;325.63;39.00;;;2.20;99.90;;;;;;5050702;28;20067;-66
2022/01/12 04:57:52;;;;;;;128.25;27.42;;;2.20;99.90;;;;;;5049632;28;20040;-66
2022/01/12 05:00:18;;;;;;;154.27;28.17;;;2.20;99.90;;;;;;5048263;28;20033;-66
2022/01/12 05:13:28;;;;;;;146.23;26.95;;;2.10;99.90;;;;;;5051370;28;20045;-66
2022/01/12 05:15:54;;;;;;;94.80;24.98;;;2.00;99.90;;;;;;5050185;28;20458;-66
2022/01/12 05:18:20;;;;;;;129.73;25.83;;;2.00;99.90;;;;;;5049893;28;20045;-65
2022/01/12 05:20:46;;;;;;;102.28;24.42;;;2.00;99.90;;;;;;5048380;28;20183;-65
2022/01/12 05:23:13;;;;;;;141.18;27.67;;;2.00;99.90;;;;;;5051006;28;20104;-66
2022/01/12 05:25:40;;;;;;;119.38;25.48;;;2.00;99.90;;;;;;5050538;28;20045;-66
2022/01/12 05:28:06;;;;;;;114.05;23.58;;;2.00;99.90;;;;;;5050044;28;20125;-66
2022/01/12 05:30:32;;;;;;;100.68;24.23;;;1.90;99.90;;;;;;5048430;28;20041;-65
2022/01/12 05:32:59;;;;;;;90.40;24.35;;;2.00;99.90;;;;;;5049947;28;20072;-65
2022/01/12 05:35:30;;;;;;;126.88;24.73;;;2.00;99.90;;;;;;5049687;28;20041;-66
2022/01/12 05:37:57;;;;;;;121.47;23.10;;;2.00;99.90;;;;;;5051234;28;20084;-66
2022/01/12 05:40:23;;;;;;;134.63;24.42;;;2.00;99.90;;;;;;5046846;28;20128;-66
2022/01/12 05:42:50;;;;;;;182.07;25.67;;;1.90;99.90;;;;;;5048391;28;20116;-67
2022/01/12 05:45:18;;;;;;;128.27;24.15;;;1.90;99.90;;;;;;5049988;28;20044;-66
2022/01/12 05:50:15;;;;;;;110.70;22.52;;;1.80;99.90;;;;;;5054094;28;20123;-66
2022/01/12 05:52:41;;;;;;;99.85;22.52;;;1.80;99.90;;;;;;5054413;28;20037;-66
2022/01/12 05:55:07;;;;;;;78.68;21.42;;;1.80;99.90;;;;;;5052864;28;20037;-66
2022/01/12 05:57:34;;;;;;;75.75;22.88;;;1.80;99.90;;;;;;5050949;28;20128;-65
2022/01/12 06:00:01;;;;;;;86.25;22.88;;;1.80;99.90;;;;;;5052802;28;20029;-66
2022/01/12 06:02:26;;;;;;;99.28;22.52;;;1.80;99.90;;;;;;5052403;28;20047;-66
2022/01/12 06:04:52;;;;;;;100.32;23.23;;;1.80;99.90;;;;;;5053049;28;20045;-65
2022/01/12 06:07:18;;;;;;;99.90;22.05;;;1.80;99.90;;;;;;5052822;28;20036;-66
2022/01/12 06:09:43;;;;;;;101.63;22.05;;;1.70;99.90;;;;;;5052164;28;20083;-65
2022/01/12 06:12:10;;;;;;;116.70;22.60;;;1.70;99.90;;;;;;5046593;28;20059;-65
2022/01/12 06:14:35;;;;;;;111.57;23.83;;;1.70;99.90;;;;;;5051771;28;20124;-65
2022/01/12 06:17:02;;;;;;;127.47;23.40;;;1.70;99.90;;;;;;5051307;28;20119;-65
2022/01/12 06:19:27;;;;;;;108.47;21.73;;;1.70;99.90;;;;;;5049022;28;20038;-65
2022/01/12 06:21:53;;;;;;;132.10;23.50;;;1.60;99.90;;;;;;5048670;28;20087;-66
2022/01/12 06:24:19;;;;;;;108.35;21.77;;;1.60;99.90;;;;;;5052959;28;20041;-65
2022/01/12 06:26:46;;;;;;;207.35;28.05;;;1.60;99.90;;;;;;5054013;28;20029;-67
2022/01/12 06:29:25;;;;;;;138.93;23.13;;;1.60;99.90;;;;;;5052853;28;20061;-67
2022/01/12 06:31:53;;;;;;;;;;;1.70;99.90;;;;;;5048964;28;20045;-66
2022/01/12 06:34:19;;;;;;;181.75;24.83;;;1.70;99.90;;;;;;5052209;28;20500;-66
2022/01/12 06:36:44;;;;;;;204.02;26.88;;;1.80;99.90;;;;;;5054122;28;20144;-65
2022/01/12 06:39:13;;;;;;;120.90;22.63;;;1.80;99.90;;;;;;5052837;28;20041;-64
2022/01/12 06:41:40;;;;;;;134.27;22.02;;;1.90;99.90;;;;;;5052237;28;20517;-66
2022/01/12 06:44:07;;;;;;;171.88;27.42;;;1.90;99.90;;;;;;5041298;28;20163;-65
2022/01/12 06:46:34;;;;;;;123.40;23.85;;;1.90;99.90;;;;;;5049114;28;20056;-65
2022/01/12 06:49:01;;;;;;;117.82;20.98;;;1.90;99.90;;;;;;5045482;28;20041;-65
2022/01/12 06:51:26;;;;;;;140.60;22.20;;;1.90;99.90;;;;;;5043588;28;20044;-65
2022/01/12 06:53:55;;;;;;;233.38;27.50;;;1.90;99.90;;;;;;5050301;28;20033;-65
2022/01/12 06:56:21;;;;;;;140.80;22.27;;;1.90;99.90;;;;;;5045402;28;20041;-65
2022/01/12 06:58:47;;;;;;;132.43;21.58;;;1.90;99.90;;;;;;5048258;28;20037;-64
2022/01/12 07:01:14;;;;;;;138.95;21.17;;;1.90;99.90;;;;;;5051714;28;20096;-64
2022/01/12 07:03:40;;;;;;;110.10;21.83;;;1.90;99.90;;;;;;5051729;28;20086;-66
2022/01/12 07:06:05;;;;;;;128.18;22.02;;;1.90;99.90;;;;;;5053280;28;20560;-65
2022/01/12 07:08:34;;;;;;;190.85;25.08;;;1.90;99.90;;;;;;5053472;28;20052;-65
2022/01/12 07:11:00;;;;;;;208.60;25.75;;;1.90;99.90;;;;;;5051818;28;20050;-65
2022/01/12 07:13:25;;;;;;;198.98;24.20;;;2.00;99.90;;;;;;5053694;28;20041;-66
2022/01/12 07:15:51;;;;;;;130.57;20.15;;;1.90;99.90;;;;;;5052738;28;20055;-63
2022/01/12 07:18:19;;;;;;;110.60;19.60;;;1.90;99.90;;;;;;5051176;28;20045;-64
2022/01/12 07:20:44;;;;;;;148.60;21.85;;;1.90;99.90;;;;;;5053625;28;20079;-64
2022/01/12 07:23:11;;;;;;;127.88;21.77;;;1.90;99.90;;;;;;5050203;28;20037;-65
2022/01/12 07:25:36;;;;;;;113.10;19.30;;;1.90;99.90;;;;;;5052424;28;20049;-65
2022/01/12 07:28:02;;;;;;;68.25;16.63;;;1.80;99.90;;;;;;5047918;28;20057;-64
2022/01/12 07:30:28;;;;;;;78.10;17.08;;;1.80;99.90;;;;;;5050891;28;20076;-65
2022/01/12 07:32:54;;;;;;;137.55;21.33;;;1.80;99.90;;;;;;5050855;28;20399;-63
2022/01/12 07:35:20;;;;;;;146.90;19.05;;;1.80;99.90;;;;;;5052284;28;20095;-64
2022/01/12 07:37:46;;;;;;;131.07;20.55;;;1.80;99.90;;;;;;5051354;28;20458;-64
2022/01/12 07:40:12;;;;;;;138.38;20.88;;;1.80;99.90;;;;;;5049585;28;20079;-64
2022/01/12 07:42:38;;;;;;;100.60;18.85;;;1.80;99.90;;;;;;5052339;28;20541;-64
2022/01/12 07:45:04;;;;;;;84.38;17.85;;;1.80;99.90;;;;;;5052211;28;20036;-64
2022/01/12 07:47:31;;;;;;;108.60;19.25;;;1.70;99.90;;;;;;5051779;28;20051;-65
2022/01/12 07:49:58;;;;;;;151.60;21.23;;;1.70;99.90;;;;;;5052365;28;20048;-66
2022/01/12 07:52:25;;;;;;;132.60;20.38;;;1.70;99.90;;;;;;5053367;28;20399;-65
2022/01/12 07:54:51;;;;;;;123.72;19.85;;;1.60;99.90;;;;;;5050671;28;20076;-66
2022/01/12 07:57:17;;;;;;;68.20;16.38;;;1.60;99.90;;;;;;5051795;28;20076;-65
2022/01/12 07:59:42;;;;;;;173.98;24.13;;;1.60;99.90;;;;;;5052930;28;20053;-64
2022/01/12 08:02:08;;;;;;;77.75;17.25;;;1.60;99.90;;;;;;5048705;28;20103;-65
2022/01/12 08:04:34;;;;;;;70.18;18.15;;;1.60;99.90;;;;;;5039757;28;20052;-63
2022/01/12 08:07:02;;;;;;;42.85;16.20;;;1.50;99.90;;;;;;5035882;28;20048;-64
2022/01/12 08:09:28;;;;;;;57.42;17.88;;;1.50;99.90;;;;;;5052006;28;20115;-64
2022/01/12 08:11:54;;;;;;;75.72;17.42;;;1.50;99.90;;;;;;5051531;28;20129;-63
2022/01/12 08:14:19;;;;;;;75.70;19.52;;;1.50;99.90;;;;;;5049602;28;20041;-64
2022/01/12 08:16:45;;;;;;;85.60;19.73;;;1.50;99.90;;;;;;5036832;28;20450;-64
2022/01/12 08:19:11;;;;;;;65.78;17.35;;;1.50;99.90;;;;;;5051767;28;20147;-64
2022/01/12 08:21:36;;;;;;;82.45;17.77;;;1.60;99.90;;;;;;5052545;28;20407;-66
2022/01/12 08:24:02;;;;;;;61.00;17.35;;;1.60;99.90;;;;;;5050403;28;20411;-65
2022/01/12 08:26:28;;;;;;;76.88;16.65;;;1.60;99.90;;;;;;5045710;28;20755;-64
2022/01/12 08:28:54;;;;;;;131.65;18.35;;;1.60;99.90;;;;;;5050605;28;20049;-65
2022/01/12 08:31:22;;;;;;;197.35;22.70;;;1.60;99.90;;;;;;5051551;28;20510;-65
2022/01/12 08:33:48;;;;;;;;;;;1.60;99.90;;;;;;5052620;28;20119;-64
2022/01/12 08:36:15;;;;;;;198.98;22.00;;;1.60;99.90;;;;;;5052486;28;20377;-65
2022/01/12 08:38:42;;;;;;;189.43;22.05;;;1.60;99.90;;;;;;5051724;28;20118;-66
2022/01/12 08:41:08;;;;;;;155.55;18.15;;;1.60;99.90;;;;;;5050241;28;20041;-64
2022/01/12 08:43:33;;;;;;;111.40;18.35;;;1.70;99.90;;;;;;5050502;28;20088;-64
2022/01/12 08:45:59;;;;;;;162.65;21.67;;;1.70;99.90;;;;;;5040321;28;20092;-64
2022/01/12 08:48:25;;;;;;;137.50;19.50;;;1.70;99.90;;;;;;5049794;28;20394;-64
2022/01/12 08:50:51;;;;;;;141.48;20.88;;;1.70;99.90;;;;;;5052121;28;20049;-65
2022/01/12 08:53:17;;;;;;;70.35;17.25;;;1.80;99.90;;;;;;5052374;28;20171;-65
2022/01/12 08:55:43;;;;;;;128.13;18.05;;;1.80;99.90;;;;;;5051769;28;20041;-65
2022/01/12 08:58:09;;;;;;;73.20;17.63;;;1.80;99.90;;;;;;5052046;28;20058;-63
2022/01/12 09:00:35;;;;;;;138.27;17.48;;;1.80;99.90;;;;;;5042042;28;20049;-63
2022/01/12 09:03:02;;;;;;;65.47;15.82;;;2.20;99.90;;;;;;5032244;28;20132;-64
2022/01/12 09:05:29;;;;;;;65.60;16.60;;;1.90;99.90;;;;;;5032593;28;20120;-65
2022/01/12 09:07:55;;;;;;;91.90;17.30;;;2.00;99.90;;;;;;5036431;28;20041;-64
2022/01/12 09:10:21;;;;;;;105.03;17.80;;;2.00;99.90;;;;;;5050345;28;20045;-64
2022/01/12 09:12:48;;;;;;;137.73;17.60;;;2.10;99.90;;;;;;5042057;28;20042;-64
2022/01/12 09:15:14;;;;;;;151.70;17.85;;;2.10;99.90;;;;;;5038045;28;20045;-65
2022/01/12 09:17:41;;;;;;;133.57;16.63;;;2.10;99.90;;;;;;5051207;28;20033;-64
2022/01/12 09:20:08;;;;;;;135.07;14.88;;;2.20;99.90;;;;;;5051632;28;20192;-64
2022/01/12 09:22:34;;;;;;;98.60;15.05;;;2.20;99.90;;;;;;5046007;28;20049;-64
2022/01/12 09:25:01;;;;;;;116.05;13.60;;;2.20;99.90;;;;;;5045640;28;20037;-65
2022/01/12 09:27:26;;;;;;;149.13;15.68;;;2.60;99.90;;;;;;5054792;28;20114;-65
2022/01/12 09:29:52;;;;;;;151.30;17.52;;;2.30;99.90;;;;;;5055927;28;20510;-65
2022/01/12 09:32:18;;;;;;;123.90;13.45;;;2.30;99.90;;;;;;5055564;28;20458;-64
2022/01/12 09:34:44;;;;;;;148.27;15.27;;;2.40;99.90;;;;;;5055590;28;20056;-63
2022/01/12 09:37:10;;;;;;;147.50;14.55;;;2.40;99.90;;;;;;5054959;28;20040;-64
2022/01/12 09:39:36;;;;;;;97.18;15.20;;;2.40;99.90;;;;;;5071157;28;20041;-64
2022/01/12 09:42:04;;;;;;;92.00;12.57;;;2.50;99.90;;;;;;5045992;28;20047;-64
2022/01/12 09:44:35;;;;;;;148.13;15.37;;;2.50;99.90;;;;;;5055920;28;20052;-67
2022/01/12 09:47:03;;;;;;;131.32;12.00;;;2.50;99.90;;;;;;5055799;28;20445;-65
2022/01/12 09:49:30;;;;;;;97.78;11.45;;;2.60;99.90;;;;;;5054293;28;20122;-65
2022/01/12 09:51:57;;;;;;;112.43;12.00;;;2.60;99.90;;;;;;5041816;28;20077;-64
2022/01/12 09:54:25;;;;;;;69.38;11.93;;;2.70;99.90;;;;;;5052841;28;20102;-66
2022/01/12 09:56:51;;;;;;;76.88;11.57;;;2.70;99.90;;;;;;5044183;28;20037;-65
2022/01/12 09:59:17;;;;;;;100.03;12.27;;;2.70;99.90;;;;;;5034565;28;20046;-65
2022/01/12 10:01:45;;;;;;;67.10;11.20;;;2.80;99.90;;;;;;5035568;28;20158;-64
2022/01/12 10:04:20;;;;;;;68.90;11.80;;;2.80;99.90;;;;;;5053256;28;20483;-64
2022/01/12 10:06:49;;;;;;;42.97;10.10;;;2.90;99.90;;;;;;5054742;28;20497;-66
2022/01/12 10:09:15;;;;;;;;;;;2.90;99.90;;;;;;5055951;28;20048;-64
2022/01/12 10:12:00;;;;;;;64.05;10.98;;;3.00;99.90;;;;;;5053927;28;19928;-64
2022/01/12 10:14:38;;;;;;;86.38;10.65;;;3.00;99.90;;;;;;5053407;28;20048;-64
2022/01/12 10:17:04;;;;;;;56.20;9.55;;;3.10;99.90;;;;;;5055119;28;20041;-65
2022/01/12 10:19:31;;;;;;;37.85;9.38;;;3.10;99.90;;;;;;5052908;28;20052;-65
2022/01/12 10:21:59;;;;;;;47.72;10.35;;;3.20;99.90;;;;;;5055355;28;20538;-63
2022/01/12 10:24:27;;;;;;;66.47;11.68;;;3.20;99.90;;;;;;5055272;28;20045;-65
2022/01/12 10:26:55;;;;;;;55.35;9.57;;;3.30;99.90;;;;;;5052944;28;20479;-64
2022/01/12 10:29:24;;;;;;;51.75;10.15;;;3.40;99.90;;;;;;5053109;28;20048;-64
2022/01/12 10:32:01;;;;;;;61.92;10.35;;;3.50;99.90;;;;;;5053861;28;20376;-68
2022/01/12 10:34:29;;;;;;;36.63;10.27;;;3.50;99.90;;;;;;5037699;28;20046;-66
2022/01/12 10:36:56;;;;;;;;;;;3.60;99.90;;;;;;5047005;28;20041;-66
2022/01/12 10:39:27;;;;;;;54.88;9.65;;;3.60;99.90;;;;;;5052997;28;19986;-66
2022/01/12 10:41:57;;;;;;;39.85;9.45;;;3.60;99.90;;;;;;5052779;28;20043;-64
2022/01/12 10:44:26;;;;;;;40.80;8.75;;;3.70;99.90;;;;;;5053091;28;20080;-65
2022/01/12 10:47:09;;;;;;;38.13;9.43;;;3.70;99.90;;;;;;5059004;28;20067;-64
2022/01/12 10:49:38;;;;;;;42.85;9.32;;;3.80;99.90;;;;;;5053972;28;20064;-66
2022/01/12 10:52:09;;;;;;;42.35;9.18;;;3.90;99.90;;;;;;5070385;28;20052;-65
2022/01/12 10:54:46;;;;;;;54.17;9.57;;;3.90;99.90;;;;;;5073364;28;20043;-65
2022/01/12 10:57:23;;;;;;;48.30;10.55;;;4.00;99.90;;;;;;5044398;28;20099;-65
2022/01/12 11:00:08;;;;;;;41.63;9.40;;;4.10;99.90;;;;;;5034691;28;20045;-66
2022/01/12 11:02:35;;;;;;;48.95;9.13;;;4.10;99.90;;;;;;5047736;28;20052;-65
2022/01/12 11:05:02;;;;;;;36.67;8.93;;;4.10;99.90;;;;;;5074434;28;20070;-64
2022/01/12 11:07:30;;;;;;;42.40;9.70;;;4.20;99.90;;;;;;5054569;28;20304;-66
2022/01/12 11:10:05;;;;;;;68.40;9.95;;;4.30;99.90;;;;;;5051805;28;20132;-66
2022/01/12 11:12:30;;;;;;;25.73;8.50;;;4.30;99.90;;;;;;5050106;28;20037;-65
2022/01/12 11:14:56;;;;;;;22.42;7.95;;;4.40;99.90;;;;;;5050734;28;20169;-65
2022/01/12 11:17:22;;;;;;;29.30;8.35;;;4.40;99.90;;;;;;5053999;28;20045;-65
2022/01/12 11:20:16;;;;;;;29.60;8.63;;;4.50;99.90;;;;;;5050710;28;20139;-65
2022/01/12 11:23:01;;;;;;;24.52;9.23;;;4.50;99.90;;;;;;5041494;28;20098;-65
2022/01/12 11:25:41;;;;;;;39.55;9.55;;;4.50;99.90;;;;;;5049050;28;20050;-65
2022/01/12 11:28:19;;;;;;;28.77;9.38;;;4.60;99.90;;;;;;5053709;28;20657;-65
2022/01/12 11:31:05;;;;;;;62.47;10.25;;;4.70;99.90;;;;;;5053199;28;20045;-65
2022/01/12 11:33:34;;;;;;;25.60;8.98;;;4.70;99.90;;;;;;5049396;28;20049;-67
2022/01/12 11:36:02;;;;;;;28.08;8.00;;;4.80;99.90;;;;;;5039865;28;20175;-67
2022/01/12 11:38:31;;;;;;;36.33;8.80;;;4.80;99.90;;;;;;5032939;28;20170;-66
2022/01/12 11:41:08;;;;;;;;;;;4.90;99.90;;;;;;5050804;28;20045;-66
2022/01/12 11:43:52;;;;;;;26.45;8.80;;;4.90;99.90;;;;;;5052620;28;19927;-66
2022/01/12 11:46:20;;;;;;;30.35;9.68;;;5.00;99.90;;;;;;5048062;28;20056;-65
2022/01/12 11:48:58;;;;;;;32.55;9.55;;;5.00;99.90;;;;;;5049080;28;20445;-66
2022/01/12 11:51:35;;;;;;;27.50;9.45;;;5.10;99.90;;;;;;5046124;28;20365;-66
2022/01/12 11:54:15;;;;;;;26.92;9.70;;;5.10;99.90;;;;;;5048630;28;20052;-66
2022/01/12 11:56:56;;;;;;;26.15;9.23;;;5.10;99.90;;;;;;5051719;28;20041;-67
2022/01/12 11:59:27;;;;;;;33.53;9.25;;;5.10;99.90;;;;;;5052995;28;20052;-66
2022/01/12 12:02:06;;;;;;;32.95;9.95;;;5.20;99.90;;;;;;5052712;28;20088;-66
2022/01/12 12:04:32;;;;;;;31.15;10.90;;;5.20;99.90;;;;;;5051299;28;20395;-66
2022/01/12 12:07:14;;;;;;;33.10;10.48;;;5.20;99.90;;;;;;5046909;28;20041;-65
2022/01/12 12:09:44;;;;;;;27.98;10.70;;;5.20;99.90;;;;;;5037310;28;20045;-66
2022/01/12 12:12:11;;;;;;;32.42;11.57;;;5.30;99.90;;;;;;5052202;28;20033;-66
2022/01/12 12:14:37;;;;;;;42.70;12.37;;;5.30;99.90;;;;;;5052641;28;20044;-67
2022/01/12 12:17:03;;;;;;;40.13;12.35;;;5.30;99.90;;;;;;5051328;28;20059;-66
2022/01/12 12:19:30;;;;;;;36.90;11.95;;;5.40;99.90;;;;;;5051709;28;20045;-66
2022/01/12 12:21:56;;;;;;;35.75;12.18;;;5.40;99.90;;;;;;5052700;28;20391;-66
2022/01/12 12:24:21;;;;;;;39.75;12.30;;;5.40;99.90;;;;;;5045023;28;20055;-65
2022/01/12 12:26:51;;;;;;;38.97;12.10;;;5.50;99.90;;;;;;5047746;28;20475;-66
2022/01/12 12:29:25;;;;;;;31.27;12.05;;;5.50;99.90;;;;;;5051076;28;20110;-65
2022/01/12 12:31:52;;;;;;;44.85;12.70;;;5.50;99.90;;;;;;5051728;28;20043;-65
2022/01/12 12:34:21;;;;;;;45.90;12.80;;;5.50;99.90;;;;;;5051751;28;20466;-65
2022/01/12 12:36:55;;;;;;;42.95;13.60;;;5.60;99.90;;;;;;5044693;28;20041;-65
2022/01/12 12:39:21;;;;;;;40.72;13.05;;;5.60;99.90;;;;;;5050662;28;20041;-65
2022/01/12 12:41:47;;;;;;;40.40;13.23;;;6.60;99.90;;;;;;5050245;28;20045;-65
2022/01/12 12:44:25;;;;;;;37.03;12.50;;;5.70;99.90;;;;;;5050941;28;20048;-64
2022/01/12 12:46:51;;;;;;;32.67;12.45;;;5.70;99.90;;;;;;5048001;28;20410;-65
2022/01/12 12:49:18;;;;;;;38.55;13.10;;;5.70;99.90;;;;;;5049582;28;20092;-65
2022/01/12 12:51:44;;;;;;;49.00;13.20;;;5.80;99.90;;;;;;5048438;28;20033;-65
2022/01/12 12:54:13;;;;;;;38.05;14.23;;;5.80;99.90;;;;;;5039156;28;20479;-65
2022/01/12 12:56:48;;;;;;;;;;;5.80;99.90;;;;;;5045699;28;20044;-65
2022/01/12 12:59:14;;;;;;;39.03;12.98;;;5.80;99.90;;;;;;5049627;28;19924;-65
2022/01/12 13:01:39;;;;;;;377.58;31.85;;;5.90;99.90;;;;;;5049181;28;20513;-64
2022/01/12 13:04:05;;;;;;;42.83;14.23;;;5.90;99.90;;;;;;5058577;28;20485;-65
2022/01/12 13:06:34;;;;;;;43.22;14.35;;;5.90;99.90;;;;;;5052372;28;20407;-65
2022/01/12 13:09:12;;;;;;;39.05;13.80;;;5.90;99.90;;;;;;5061830;28;20053;-65
2022/01/12 13:11:39;;;;;;;45.53;13.73;;;6.00;99.90;;;;;;5051202;28;20060;-66
2022/01/12 13:14:08;;;;;;;44.92;14.45;;;6.00;99.90;;;;;;5049421;28;20147;-65
2022/01/12 13:16:35;;;;;;;43.67;13.05;;;5.90;99.90;;;;;;5038543;28;20044;-64
2022/01/12 13:19:20;;;;;;;41.60;14.15;;;5.90;99.90;;;;;;5046952;28;20049;-65
2022/01/12 13:21:45;;;;;;;46.08;13.23;;;5.90;99.90;;;;;;5049180;28;20045;-65
2022/01/12 13:24:11;;;;;;;41.97;13.43;;;7.00;99.90;;;;;;5047573;28;20082;-66
2022/01/12 13:26:37;;;;;;;38.13;13.88;;;5.80;99.90;;;;;;5051204;28;20037;-65
2022/01/12 13:29:08;;;;;;;30.65;11.75;;;5.80;99.90;;;;;;5049409;28;20388;-66
2022/01/12 13:31:34;;;;;;;33.22;13.05;;;5.80;99.90;;;;;;5051643;28;20140;-66
2022/01/12 13:34:02;;;;;;;35.08;12.38;;;5.70;99.90;;;;;;5049826;28;20187;-67
2022/01/12 13:36:31;;;;;;;32.93;11.43;;;5.70;99.90;;;;;;5049712;28;20045;-64
2022/01/12 13:38:58;;;;;;;38.97;12.80;;;5.70;99.90;;;;;;5049647;28;20295;-65
2022/01/12 13:41:36;;;;;;;35.92;13.20;;;5.70;99.90;;;;;;5047518;28;20487;-65
2022/01/12 13:44:22;;;;;;;40.85;12.25;;;5.70;99.90;;;;;;5047479;28;20247;-66
2022/01/12 13:47:04;;;;;;;29.80;12.77;;;5.70;99.90;;;;;;5046708;28;20139;-67
2022/01/12 13:49:30;;;;;;;39.17;12.82;;;5.60;99.90;;;;;;5050217;28;20398;-65
2022/01/12 13:52:00;;;;;;;37.95;11.70;;;5.60;99.90;;;;;;5051580;28;20040;-66
2022/01/12 13:54:29;;;;;;;33.53;12.43;;;5.60;99.90;;;;;;5049136;28;20083;-65
2022/01/12 13:56:56;;;;;;;28.13;12.68;;;5.60;99.90;;;;;;5049120;28;20502;-67
2022/01/12 13:59:25;;;;;;;33.80;12.32;;;5.60;99.90;;;;;;5050960;28;20044;-65